createdAt,value
2016-05-10T00:00:59.674Z,1006.65
2016-05-10T00:01:59.723Z,1006.65
2016-05-10T00:02:59.788Z,1006.63
2016-05-10T00:03:59.822Z,1006.64
2016-05-10T00:04:59.888Z,1006.69
2016-05-10T00:05:59.937Z,1006.62
2016-05-10T00:07:00.002Z,1006.63
2016-05-10T00:08:00.052Z,1006.62
2016-05-10T00:09:00.101Z,1006.61
2016-05-10T00:10:00.166Z,1006.63
2016-05-10T00:11:00.216Z,1006.62
2016-05-10T00:12:00.266Z,1006.65
2016-05-10T00:13:00.358Z,1006.61
2016-05-10T00:14:00.449Z,1006.6
2016-05-10T00:15:00.539Z,1006.64
2016-05-10T00:16:00.630Z,1006.61
2016-05-10T00:17:00.737Z,1006.59
2016-05-10T00:18:00.825Z,1006.6
2016-05-10T00:19:00.889Z,1006.59
2016-05-10T00:20:01.016Z,1006.59
2016-05-10T00:21:01.049Z,1006.64
2016-05-10T00:22:01.097Z,1006.65
2016-05-10T00:23:01.155Z,1006.62
2016-05-10T00:24:01.210Z,1006.65
2016-05-10T00:25:01.282Z,1006.58
2016-05-10T00:26:01.336Z,1006.59
2016-05-10T00:27:01.390Z,1006.57
2016-05-10T00:28:01.459Z,1006.6
2016-05-10T00:29:01.511Z,1006.56
2016-05-10T00:30:01.563Z,1006.58
2016-05-10T00:31:01.629Z,1006.59
2016-05-10T00:32:01.681Z,1006.56
2016-05-10T00:33:01.731Z,1006.59
2016-05-10T00:34:01.797Z,1006.56
2016-05-10T00:35:01.847Z,1006.56
2016-05-10T00:36:01.898Z,1006.53
2016-05-10T00:37:01.964Z,1006.56
2016-05-10T00:38:02.014Z,1006.49
2016-05-10T00:39:02.064Z,1006.51
2016-05-10T00:40:02.113Z,1006.47
2016-05-10T00:41:02.179Z,1006.5
2016-05-10T00:42:02.229Z,1006.48
2016-05-10T00:43:02.279Z,1006.51
2016-05-10T00:44:02.344Z,1006.46
2016-05-10T00:45:02.393Z,1006.49
2016-05-10T00:46:02.459Z,1006.49
2016-05-10T00:47:02.508Z,1006.45
2016-05-10T00:48:02.558Z,1006.46
2016-05-10T00:49:02.624Z,1006.44
2016-05-10T00:50:02.657Z,1006.44
2016-05-10T00:51:02.722Z,1006.47
2016-05-10T00:52:02.771Z,1006.44
2016-05-10T00:53:02.821Z,1006.44
2016-05-10T00:54:02.871Z,1006.48
2016-05-10T00:55:02.937Z,1006.4
2016-05-10T00:56:03.002Z,1006.43
2016-05-10T00:57:03.051Z,1006.4
2016-05-10T00:58:03.101Z,1006.39
2016-05-10T00:59:03.150Z,1006.37
2016-05-10T01:00:03.215Z,1006.36
2016-05-10T01:01:03.265Z,1006.35
2016-05-10T01:02:03.314Z,1006.33
2016-05-10T01:03:03.379Z,1006.35
2016-05-10T01:04:03.429Z,1006.34
2016-05-10T01:05:03.479Z,1006.3
2016-05-10T01:06:03.544Z,1006.27
2016-05-10T01:07:03.594Z,1006.27
2016-05-10T01:08:03.643Z,1006.27
2016-05-10T01:09:03.708Z,1006.3
2016-05-10T01:10:03.758Z,1006.25
2016-05-10T01:11:03.855Z,1006.25
2016-05-10T01:12:03.872Z,1006.23
2016-05-10T01:13:03.922Z,1006.24
2016-05-10T01:14:03.972Z,1006.2
2016-05-10T01:15:04.037Z,1006.23
2016-05-10T01:16:04.086Z,1006.23
2016-05-10T01:17:04.136Z,1006.21
2016-05-10T01:18:04.217Z,1006.23
2016-05-10T01:19:04.251Z,1006.21
2016-05-10T01:20:04.300Z,1006.19
2016-05-10T01:21:04.366Z,1006.21
2016-05-10T01:22:04.415Z,1006.18
2016-05-10T01:23:04.465Z,1006.21
2016-05-10T01:24:04.530Z,1006.22
2016-05-10T01:25:04.580Z,1006.19
2016-05-10T01:26:04.629Z,1006.23
2016-05-10T01:27:04.694Z,1006.2
2016-05-10T01:28:04.743Z,1006.21
2016-05-10T01:29:04.793Z,1006.15
2016-05-10T01:30:04.859Z,1006.09
2016-05-10T01:31:04.908Z,1006.1
2016-05-10T01:32:04.957Z,1006.09
2016-05-10T01:33:05.023Z,1006.05
2016-05-10T01:34:05.073Z,1006.08
2016-05-10T01:35:05.122Z,1006.08
2016-05-10T01:36:05.187Z,1006.06
2016-05-10T01:37:05.237Z,1006.05
2016-05-10T01:38:05.286Z,1006.04
2016-05-10T01:39:05.351Z,1006.07
2016-05-10T01:40:05.386Z,1006.04
2016-05-10T01:41:05.451Z,1006.04
2016-05-10T01:42:05.500Z,1006.06
2016-05-10T01:43:05.550Z,1006
2016-05-10T01:44:05.614Z,1006.03
2016-05-10T01:45:05.742Z,1006.01
2016-05-10T01:46:05.714Z,1005.98
2016-05-10T01:47:05.780Z,1005.96
2016-05-10T01:48:05.830Z,1005.92
2016-05-10T01:49:05.894Z,1005.94
2016-05-10T01:50:05.943Z,1005.95
2016-05-10T01:51:05.993Z,1005.98
2016-05-10T01:52:06.043Z,1005.93
2016-05-10T01:53:06.108Z,1005.94
2016-05-10T01:54:06.158Z,1005.91
2016-05-10T01:55:06.207Z,1005.9
2016-05-10T01:56:06.272Z,1005.9
2016-05-10T01:57:06.321Z,1005.91
2016-05-10T01:58:06.372Z,1005.9
2016-05-10T01:59:06.437Z,1005.86
2016-05-10T02:00:06.487Z,1005.82
2016-05-10T02:01:06.551Z,1005.79
2016-05-10T02:02:06.585Z,1005.79
2016-05-10T02:03:06.650Z,1005.76
2016-05-10T02:04:06.700Z,1005.8
2016-05-10T02:05:06.750Z,1005.82
2016-05-10T02:06:06.815Z,1005.81
2016-05-10T02:07:06.865Z,1005.75
2016-05-10T02:08:06.929Z,1005.77
2016-05-10T02:09:06.963Z,1005.78
2016-05-10T02:10:07.044Z,1005.77
2016-05-10T02:11:07.094Z,1005.76
2016-05-10T02:12:07.144Z,1005.72
2016-05-10T02:13:07.193Z,1005.74
2016-05-10T02:14:07.242Z,1005.73
2016-05-10T02:15:07.308Z,1005.75
2016-05-10T02:16:07.357Z,1005.78
2016-05-10T02:17:07.407Z,1005.81
2016-05-10T02:18:07.472Z,1005.8
2016-05-10T02:19:07.522Z,1005.77
2016-05-10T02:20:07.571Z,1005.78
2016-05-10T02:21:07.636Z,1005.74
2016-05-10T02:22:07.686Z,1005.76
2016-05-10T02:23:07.735Z,1005.76
2016-05-10T02:24:07.801Z,1005.76
2016-05-10T02:25:07.850Z,1005.78
2016-05-10T02:26:07.900Z,1005.76
2016-05-10T02:27:07.965Z,1005.75
2016-05-10T02:28:08.015Z,1005.77
2016-05-10T02:29:08.065Z,1005.8
2016-05-10T02:30:08.129Z,1005.72
2016-05-10T02:31:08.179Z,1005.74
2016-05-10T02:32:08.228Z,1005.69
2016-05-10T02:33:08.293Z,1005.7
2016-05-10T02:34:08.343Z,1005.72
2016-05-10T02:35:08.393Z,1005.72
2016-05-10T02:36:08.459Z,1005.74
2016-05-10T02:37:08.492Z,1005.65
2016-05-10T02:38:08.556Z,1005.69
2016-05-10T02:39:08.606Z,1005.65
2016-05-10T02:40:08.656Z,1005.7
2016-05-10T02:41:08.722Z,1005.69
2016-05-10T02:42:08.771Z,1005.68
2016-05-10T02:43:08.820Z,1005.68
2016-05-10T02:44:10.433Z,1005.68
2016-05-10T02:45:08.935Z,1005.66
2016-05-10T02:46:08.986Z,1005.64
2016-05-10T02:47:09.050Z,1005.62
2016-05-10T02:48:09.099Z,1005.64
2016-05-10T02:49:09.150Z,1005.61
2016-05-10T02:50:09.199Z,1005.59
2016-05-10T02:51:09.263Z,1005.59
2016-05-10T02:52:09.314Z,1005.56
2016-05-10T02:53:09.379Z,1005.6
2016-05-10T02:54:09.428Z,1005.56
2016-05-10T02:55:09.478Z,1005.56
2016-05-10T02:56:09.527Z,1005.51
2016-05-10T02:57:09.593Z,1005.52
2016-05-10T02:58:09.642Z,1005.5
2016-05-10T02:59:09.691Z,1005.51
2016-05-10T03:00:09.757Z,1005.51
2016-05-10T03:01:09.806Z,1005.48
2016-05-10T03:02:09.872Z,1005.5
2016-05-10T03:03:09.921Z,1005.49
2016-05-10T03:04:09.971Z,1005.53
2016-05-10T03:05:10.020Z,1005.51
2016-05-10T03:06:10.085Z,1005.47
2016-05-10T03:07:10.135Z,1005.5
2016-05-10T03:08:10.184Z,1005.48
2016-05-10T03:09:10.250Z,1005.48
2016-05-10T03:10:10.300Z,1005.49
2016-05-10T03:11:10.348Z,1005.47
2016-05-10T03:12:10.414Z,1005.51
2016-05-10T03:13:10.464Z,1005.47
2016-05-10T03:14:10.514Z,1005.49
2016-05-10T03:15:10.578Z,1005.47
2016-05-10T03:16:10.628Z,1005.45
2016-05-10T03:17:10.677Z,1005.49
2016-05-10T03:18:10.728Z,1005.47
2016-05-10T03:19:10.792Z,1005.51
2016-05-10T03:20:10.841Z,1005.47
2016-05-10T03:21:10.892Z,1005.44
2016-05-10T03:22:10.957Z,1005.43
2016-05-10T03:23:11.005Z,1005.44
2016-05-10T03:24:11.071Z,1005.41
2016-05-10T03:25:11.121Z,1005.44
2016-05-10T03:26:11.171Z,1005.42
2016-05-10T03:27:11.221Z,1005.42
2016-05-10T03:28:11.285Z,1005.4
2016-05-10T03:29:11.335Z,1005.42
2016-05-10T03:30:11.385Z,1005.44
2016-05-10T03:31:11.434Z,1005.44
2016-05-10T03:32:11.499Z,1005.42
2016-05-10T03:33:11.549Z,1005.41
2016-05-10T03:34:11.598Z,1005.42
2016-05-10T03:35:11.663Z,1005.41
2016-05-10T03:36:11.713Z,1005.42
2016-05-10T03:37:11.762Z,1005.47
2016-05-10T03:38:11.813Z,1005.43
2016-05-10T03:39:11.877Z,1005.4
2016-05-10T03:40:11.926Z,1005.39
2016-05-10T03:41:11.976Z,1005.35
2016-05-10T03:42:12.026Z,1005.39
2016-05-10T03:43:12.092Z,1005.36
2016-05-10T03:44:12.156Z,1005.35
2016-05-10T03:45:12.206Z,1005.35
2016-05-10T03:46:12.256Z,1005.34
2016-05-10T03:47:12.305Z,1005.34
2016-05-10T03:48:12.370Z,1005.31
2016-05-10T03:49:12.420Z,1005.31
2016-05-10T03:50:12.470Z,1005.33
2016-05-10T03:51:12.535Z,1005.31
2016-05-10T03:52:12.583Z,1005.31
2016-05-10T03:53:12.649Z,1005.31
2016-05-10T03:54:12.683Z,1005.3
2016-05-10T03:55:12.733Z,1005.3
2016-05-10T03:56:12.799Z,1005.28
2016-05-10T03:57:12.848Z,1005.34
2016-05-10T03:58:12.913Z,1005.27
2016-05-10T03:59:12.962Z,1005.29
2016-05-10T04:00:13.012Z,1005.27
2016-05-10T04:01:13.077Z,1005.32
2016-05-10T04:02:13.127Z,1005.27
2016-05-10T04:03:13.176Z,1005.24
2016-05-10T04:04:13.226Z,1005.24
2016-05-10T04:05:13.290Z,1005.23
2016-05-10T04:06:13.340Z,1005.22
2016-05-10T04:07:13.390Z,1005.24
2016-05-10T04:08:13.456Z,1005.18
2016-05-10T04:09:13.505Z,1005.2
2016-05-10T04:10:13.570Z,1005.23
2016-05-10T04:11:13.620Z,1005.24
2016-05-10T04:12:13.670Z,1005.2
2016-05-10T04:13:13.719Z,1005.19
2016-05-10T04:14:13.784Z,1005.14
2016-05-10T04:15:13.834Z,1005.17
2016-05-10T04:16:13.883Z,1005.18
2016-05-10T04:17:13.933Z,1005.13
2016-05-10T04:18:13.998Z,1005.2
2016-05-10T04:19:14.047Z,1005.15
2016-05-10T04:20:14.097Z,1005.13
2016-05-10T04:21:14.161Z,1005.13
2016-05-10T04:22:14.211Z,1005.17
2016-05-10T04:23:14.277Z,1005.13
2016-05-10T04:24:14.327Z,1005.15
2016-05-10T04:25:14.392Z,1005.14
2016-05-10T04:26:14.426Z,1005.15
2016-05-10T04:27:14.491Z,1005.14
2016-05-10T04:28:14.540Z,1005.13
2016-05-10T04:29:14.590Z,1005.13
2016-05-10T04:30:14.640Z,1005.1
2016-05-10T04:31:14.689Z,1005.1
2016-05-10T04:32:14.755Z,1005.12
2016-05-10T04:33:14.851Z,1005.17
2016-05-10T04:34:14.868Z,1005.13
2016-05-10T04:35:14.919Z,1005.16
2016-05-10T04:36:14.968Z,1005.18
2016-05-10T04:37:15.034Z,1005.14
2016-05-10T04:38:15.083Z,1005.14
2016-05-10T04:39:15.132Z,1005.11
2016-05-10T04:40:15.198Z,1005.12
2016-05-10T04:41:15.247Z,1005.11
2016-05-10T04:42:15.297Z,1005.09
2016-05-10T04:43:15.362Z,1005.06
2016-05-10T04:44:15.412Z,1005.15
2016-05-10T04:45:15.462Z,1005.13
2016-05-10T04:46:15.511Z,1005.1
2016-05-10T04:47:15.575Z,1005.09
2016-05-10T04:48:15.625Z,1005.13
2016-05-10T04:49:15.675Z,1005.15
2016-05-10T04:50:15.725Z,1005.12
2016-05-10T04:51:15.790Z,1005.13
2016-05-10T04:52:15.839Z,1005.13
2016-05-10T04:53:15.888Z,1005.09
2016-05-10T04:54:15.954Z,1005.11
2016-05-10T04:55:16.003Z,1005.11
2016-05-10T04:56:16.053Z,1005.1
2016-05-10T04:57:16.102Z,1005.04
2016-05-10T04:58:16.169Z,1005.11
2016-05-10T04:59:16.218Z,1005.09
2016-05-10T05:00:16.267Z,1005.11
2016-05-10T05:01:16.333Z,1005.1
2016-05-10T05:02:16.382Z,1005.09
2016-05-10T05:03:16.432Z,1005.05
2016-05-10T05:04:16.481Z,1005.03
2016-05-10T05:05:16.546Z,1005.06
2016-05-10T05:06:16.612Z,1005.05
2016-05-10T05:07:16.645Z,1005.07
2016-05-10T05:08:16.710Z,1005.05
2016-05-10T05:09:16.760Z,1005.01
2016-05-10T05:10:16.809Z,1005.02
2016-05-10T05:11:16.860Z,1005.02
2016-05-10T05:12:16.924Z,1005.03
2016-05-10T05:13:16.973Z,1005.07
2016-05-10T05:14:17.493Z,1005.04
2016-05-10T05:15:17.089Z,1005.01
2016-05-10T05:16:17.138Z,1004.98
2016-05-10T05:17:17.188Z,1004.99
2016-05-10T05:18:17.253Z,1005
2016-05-10T05:19:17.303Z,1004.98
2016-05-10T05:20:17.352Z,1005.01
2016-05-10T05:21:17.417Z,1005.02
2016-05-10T05:22:17.467Z,1004.97
2016-05-10T05:23:17.516Z,1005.01
2016-05-10T05:24:17.581Z,1004.97
2016-05-10T05:25:17.631Z,1004.99
2016-05-10T05:26:17.681Z,1004.96
2016-05-10T05:27:17.746Z,1005.01
2016-05-10T05:28:17.796Z,1004.97
2016-05-10T05:29:17.860Z,1004.98
2016-05-10T05:30:17.910Z,1004.99
2016-05-10T05:31:17.960Z,1004.93
2016-05-10T05:32:18.009Z,1004.96
2016-05-10T05:33:18.060Z,1004.89
2016-05-10T05:34:18.125Z,1004.89
2016-05-10T05:35:18.174Z,1004.9
2016-05-10T05:36:18.223Z,1004.89
2016-05-10T05:37:18.273Z,1004.83
2016-05-10T05:38:18.338Z,1004.85
2016-05-10T05:39:18.387Z,1004.83
2016-05-10T05:40:18.437Z,1004.83
2016-05-10T05:41:18.502Z,1004.83
2016-05-10T05:42:18.552Z,1004.8
2016-05-10T05:43:18.601Z,1004.82
2016-05-10T05:44:18.667Z,1004.81
2016-05-10T05:45:18.717Z,1004.83
2016-05-10T05:46:18.765Z,1004.79
2016-05-10T05:47:18.831Z,1004.79
2016-05-10T05:48:18.881Z,1004.82
2016-05-10T05:49:18.930Z,1004.8
2016-05-10T05:50:18.981Z,1004.77
2016-05-10T05:51:19.045Z,1004.82
2016-05-10T05:52:19.094Z,1004.76
2016-05-10T05:53:19.144Z,1004.82
2016-05-10T05:54:19.209Z,1004.8
2016-05-10T05:55:19.258Z,1004.85
2016-05-10T05:56:19.308Z,1004.87
2016-05-10T05:57:19.389Z,1004.83
2016-05-10T05:58:19.422Z,1004.87
2016-05-10T05:59:19.472Z,1004.81
2016-05-10T06:00:19.538Z,1004.84
2016-05-10T06:01:19.588Z,1004.85
2016-05-10T06:02:19.637Z,1004.82
2016-05-10T06:03:19.686Z,1004.83
2016-05-10T06:04:19.752Z,1004.79
2016-05-10T06:05:19.802Z,1004.83
2016-05-10T06:06:19.851Z,1004.82
2016-05-10T06:07:19.916Z,1004.77
2016-05-10T06:08:19.966Z,1004.75
2016-05-10T06:09:20.016Z,1004.75
2016-05-10T06:10:20.064Z,1004.68
2016-05-10T06:11:20.129Z,1004.73
2016-05-10T06:12:20.179Z,1004.66
2016-05-10T06:13:20.229Z,1004.67
2016-05-10T06:14:20.951Z,1004.75
2016-05-10T06:15:20.344Z,1004.69
2016-05-10T06:16:20.393Z,1004.65
2016-05-10T06:17:20.442Z,1004.63
2016-05-10T06:18:20.508Z,1004.66
2016-05-10T06:19:20.558Z,1004.63
2016-05-10T06:20:20.607Z,1004.7
2016-05-10T06:21:20.673Z,1004.65
2016-05-10T06:22:20.723Z,1004.68
2016-05-10T06:23:20.772Z,1004.73
2016-05-10T06:24:20.837Z,1004.7
2016-05-10T06:25:20.886Z,1004.72
2016-05-10T06:26:20.936Z,1004.66
2016-05-10T06:27:21.000Z,1004.73
2016-05-10T06:28:21.051Z,1004.73
2016-05-10T06:29:21.585Z,1004.71
2016-05-10T06:30:21.150Z,1004.73
2016-05-10T06:31:21.215Z,1004.75
2016-05-10T06:32:21.265Z,1004.71
2016-05-10T06:33:21.313Z,1004.75
2016-05-10T06:34:21.363Z,1004.78
2016-05-10T06:35:21.429Z,1004.72
2016-05-10T06:36:21.479Z,1004.74
2016-05-10T06:37:21.527Z,1004.75
2016-05-10T06:38:21.578Z,1004.72
2016-05-10T06:39:21.643Z,1004.72
2016-05-10T06:40:21.692Z,1004.74
2016-05-10T06:41:21.742Z,1004.71
2016-05-10T06:42:21.807Z,1004.74
2016-05-10T06:43:21.857Z,1004.71
2016-05-10T06:44:21.907Z,1004.68
2016-05-10T06:45:21.971Z,1004.77
2016-05-10T06:46:22.021Z,1004.68
2016-05-10T06:47:22.071Z,1004.65
2016-05-10T06:48:22.120Z,1004.7
2016-05-10T06:49:22.185Z,1004.74
2016-05-10T06:50:22.235Z,1004.67
2016-05-10T06:51:22.284Z,1004.71
2016-05-10T06:52:22.334Z,1004.71
2016-05-10T06:53:22.400Z,1004.67
2016-05-10T06:54:22.449Z,1004.7
2016-05-10T06:55:22.498Z,1004.68
2016-05-10T06:56:22.563Z,1004.7
2016-05-10T06:57:22.613Z,1004.71
2016-05-10T06:58:22.663Z,1004.65
2016-05-10T06:59:22.728Z,1004.69
2016-05-10T07:00:22.777Z,1004.71
2016-05-10T07:01:22.827Z,1004.62
2016-05-10T07:02:22.876Z,1004.63
2016-05-10T07:03:22.942Z,1004.61
2016-05-10T07:04:22.991Z,1004.61
2016-05-10T07:05:23.041Z,1004.61
2016-05-10T07:06:23.105Z,1004.66
2016-05-10T07:07:23.155Z,1004.68
2016-05-10T07:08:23.205Z,1004.65
2016-05-10T07:09:23.254Z,1004.61
2016-05-10T07:10:23.321Z,1004.62
2016-05-10T07:11:23.385Z,1004.59
2016-05-10T07:12:23.418Z,1004.65
2016-05-10T07:13:23.484Z,1004.67
2016-05-10T07:14:23.534Z,1004.64
2016-05-10T07:15:23.584Z,1004.66
2016-05-10T07:16:23.633Z,1004.67
2016-05-10T07:17:23.698Z,1004.63
2016-05-10T07:18:23.748Z,1004.65
2016-05-10T07:19:23.797Z,1004.72
2016-05-10T07:20:23.848Z,1004.67
2016-05-10T07:21:23.912Z,1004.67
2016-05-10T07:22:23.961Z,1004.69
2016-05-10T07:23:24.011Z,1004.64
2016-05-10T07:24:24.076Z,1004.64
2016-05-10T07:25:24.126Z,1004.7
2016-05-10T07:26:24.192Z,1004.71
2016-05-10T07:27:24.241Z,1004.63
2016-05-10T07:28:24.290Z,1004.62
2016-05-10T07:29:24.371Z,1004.58
2016-05-10T07:30:24.389Z,1004.65
2016-05-10T07:31:24.454Z,1004.64
2016-05-10T07:32:24.504Z,1004.63
2016-05-10T07:33:24.553Z,1004.64
2016-05-10T07:34:24.619Z,1004.58
2016-05-10T07:35:24.669Z,1004.57
2016-05-10T07:36:24.718Z,1004.59
2016-05-10T07:37:24.783Z,1004.63
2016-05-10T07:38:24.832Z,1004.55
2016-05-10T07:39:24.882Z,1004.58
2016-05-10T07:40:24.947Z,1004.54
2016-05-10T07:41:24.996Z,1004.51
2016-05-10T07:42:25.046Z,1004.56
2016-05-10T07:43:25.112Z,1004.55
2016-05-10T07:44:25.177Z,1004.56
2016-05-10T07:45:25.211Z,1004.51
2016-05-10T07:46:25.276Z,1004.53
2016-05-10T07:47:25.326Z,1004.51
2016-05-10T07:48:25.375Z,1004.52
2016-05-10T07:49:25.440Z,1004.49
2016-05-10T07:50:25.490Z,1004.53
2016-05-10T07:51:25.540Z,1004.55
2016-05-10T07:52:25.589Z,1004.47
2016-05-10T07:53:25.654Z,1004.5
2016-05-10T07:54:25.704Z,1004.5
2016-05-10T07:55:25.770Z,1004.47
2016-05-10T07:56:25.803Z,1004.52
2016-05-10T07:57:25.868Z,1004.47
2016-05-10T07:58:25.917Z,1004.53
2016-05-10T07:59:25.983Z,1004.52
2016-05-10T08:00:26.033Z,1004.5
2016-05-10T08:01:26.082Z,1004.55
2016-05-10T08:02:26.147Z,1004.43
2016-05-10T08:03:26.197Z,1004.47
2016-05-10T08:04:26.246Z,1004.45
2016-05-10T08:05:26.311Z,1004.48
2016-05-10T08:06:26.361Z,1004.46
2016-05-10T08:07:26.411Z,1004.46
2016-05-10T08:08:26.476Z,1004.44
2016-05-10T08:09:26.541Z,1004.45
2016-05-10T08:10:26.575Z,1004.43
2016-05-10T08:11:26.624Z,1004.5
2016-05-10T08:12:26.690Z,1004.42
2016-05-10T08:13:26.740Z,1004.43
2016-05-10T08:14:26.820Z,1004.38
2016-05-10T08:15:26.870Z,1004.42
2016-05-10T08:16:26.904Z,1004.41
2016-05-10T08:17:26.953Z,1004.43
2016-05-10T08:18:27.018Z,1004.41
2016-05-10T08:19:27.068Z,1004.42
2016-05-10T08:20:27.118Z,1004.44
2016-05-10T08:21:27.167Z,1004.46
2016-05-10T08:22:27.232Z,1004.47
2016-05-10T08:23:27.282Z,1004.45
2016-05-10T08:24:27.348Z,1004.47
2016-05-10T08:25:27.397Z,1004.39
2016-05-10T08:26:27.445Z,1004.44
2016-05-10T08:27:27.495Z,1004.41
2016-05-10T08:28:27.561Z,1004.44
2016-05-10T08:29:27.829Z,1004.42
2016-05-10T08:30:27.675Z,1004.44
2016-05-10T08:31:27.725Z,1004.47
2016-05-10T08:32:27.775Z,1004.46
2016-05-10T08:33:27.839Z,1004.41
2016-05-10T08:34:27.890Z,1004.41
2016-05-10T08:35:27.939Z,1004.45
2016-05-10T08:36:27.988Z,1004.41
2016-05-10T08:37:28.054Z,1004.42
2016-05-10T08:38:28.103Z,1004.41
2016-05-10T08:39:28.168Z,1004.38
2016-05-10T08:40:28.218Z,1004.44
2016-05-10T08:41:28.268Z,1004.37
2016-05-10T08:42:28.317Z,1004.43
2016-05-10T08:43:28.382Z,1004.34
2016-05-10T08:44:28.432Z,1004.4
2016-05-10T08:45:28.482Z,1004.4
2016-05-10T08:46:28.531Z,1004.39
2016-05-10T08:47:28.596Z,1004.4
2016-05-10T08:48:28.646Z,1004.33
2016-05-10T08:49:28.712Z,1004.39
2016-05-10T08:50:28.760Z,1004.36
2016-05-10T08:51:28.810Z,1004.4
2016-05-10T08:52:28.876Z,1004.44
2016-05-10T08:53:28.926Z,1004.35
2016-05-10T08:54:28.975Z,1004.42
2016-05-10T08:55:29.040Z,1004.39
2016-05-10T08:56:29.090Z,1004.37
2016-05-10T08:57:29.139Z,1004.31
2016-05-10T08:58:29.204Z,1004.37
2016-05-10T08:59:29.253Z,1004.31
2016-05-10T09:00:29.303Z,1004.37
2016-05-10T09:01:29.353Z,1004.3
2016-05-10T09:02:29.417Z,1004.32
2016-05-10T09:03:29.467Z,1004.32
2016-05-10T09:04:29.516Z,1004.3
2016-05-10T09:05:29.582Z,1004.31
2016-05-10T09:06:29.633Z,1004.27
2016-05-10T09:07:29.697Z,1004.26
2016-05-10T09:08:29.747Z,1004.3
2016-05-10T09:09:29.797Z,1004.33
2016-05-10T09:10:29.861Z,1004.28
2016-05-10T09:11:29.911Z,1004.32
2016-05-10T09:12:29.961Z,1004.28
2016-05-10T09:13:30.026Z,1004.35
2016-05-10T09:14:30.482Z,1004.2
2016-05-10T09:15:30.125Z,1004.22
2016-05-10T09:16:30.174Z,1004.18
2016-05-10T09:17:30.240Z,1004.2
2016-05-10T09:18:30.290Z,1004.18
2016-05-10T09:19:30.375Z,1004.21
2016-05-10T09:20:30.483Z,1004.16
2016-05-10T09:21:30.574Z,1004.12
2016-05-10T09:22:30.680Z,1004.21
2016-05-10T09:23:30.771Z,1004.18
2016-05-10T09:24:30.854Z,1004.21
2016-05-10T09:25:30.919Z,1004.2
2016-05-10T09:26:30.983Z,1004.18
2016-05-10T09:27:31.048Z,1004.16
2016-05-10T09:28:31.112Z,1004.16
2016-05-10T09:29:31.246Z,1004.17
2016-05-10T09:30:31.240Z,1004.15
2016-05-10T09:31:31.309Z,1004.11
2016-05-10T09:32:31.365Z,1004.08
2016-05-10T09:33:31.419Z,1004.04
2016-05-10T09:34:31.487Z,1004.1
2016-05-10T09:35:31.538Z,1004.15
2016-05-10T09:36:31.605Z,1004.17
2016-05-10T09:37:31.657Z,1004.12
2016-05-10T09:38:31.708Z,1004.11
2016-05-10T09:39:31.774Z,1004.1
2016-05-10T09:40:31.825Z,1004.09
2016-05-10T09:41:31.875Z,1004.1
2016-05-10T09:42:31.926Z,1004.11
2016-05-10T09:43:31.992Z,1004.13
2016-05-10T09:44:32.041Z,1003.97
2016-05-10T09:45:32.092Z,1004.09
2016-05-10T09:46:32.156Z,1004.08
2016-05-10T09:47:32.207Z,1004.04
2016-05-10T09:48:32.273Z,1004.09
2016-05-10T09:49:32.322Z,1004.11
2016-05-10T09:50:32.371Z,1004.1
2016-05-10T09:51:32.420Z,1004.03
2016-05-10T09:52:32.486Z,1004.01
2016-05-10T09:53:32.536Z,1003.97
2016-05-10T09:54:32.586Z,1004.01
2016-05-10T09:55:32.650Z,1004.03
2016-05-10T09:56:32.716Z,1004
2016-05-10T09:57:32.750Z,1004.07
2016-05-10T09:58:32.814Z,1004.02
2016-05-10T09:59:32.865Z,1004.06
2016-05-10T10:00:32.930Z,1004
2016-05-10T10:01:32.980Z,1003.98
2016-05-10T10:02:33.028Z,1003.98
2016-05-10T10:03:33.094Z,1004
2016-05-10T10:04:33.128Z,1004.05
2016-05-10T10:05:33.193Z,1004.1
2016-05-10T10:06:33.243Z,1004.03
2016-05-10T10:07:33.308Z,1004.01
2016-05-10T10:08:33.357Z,1003.99
2016-05-10T10:09:33.408Z,1004.12
2016-05-10T10:10:33.472Z,1004.06
2016-05-10T10:11:33.522Z,1003.99
2016-05-10T10:12:33.588Z,1004.01
2016-05-10T10:13:33.637Z,1004.02
2016-05-10T10:14:33.686Z,1003.94
2016-05-10T10:15:33.735Z,1003.97
2016-05-10T10:16:33.801Z,1004
2016-05-10T10:17:33.851Z,1004.05
2016-05-10T10:18:33.900Z,1004.03
2016-05-10T10:19:33.965Z,1004.07
2016-05-10T10:20:34.014Z,1003.98
2016-05-10T10:21:34.080Z,1004.02
2016-05-10T10:22:34.129Z,1004.04
2016-05-10T10:23:34.179Z,1004.04
2016-05-10T10:24:34.244Z,1003.97
2016-05-10T10:25:34.295Z,1004
2016-05-10T10:26:34.343Z,1003.99
2016-05-10T10:27:34.409Z,1004
2016-05-10T10:28:34.459Z,1003.9
2016-05-10T10:29:34.508Z,1003.96
2016-05-10T10:30:34.589Z,1004
2016-05-10T10:31:34.622Z,1003.98
2016-05-10T10:32:34.672Z,1003.92
2016-05-10T10:33:34.722Z,1003.96
2016-05-10T10:34:34.786Z,1003.96
2016-05-10T10:35:34.836Z,1003.93
2016-05-10T10:36:34.902Z,1004.01
2016-05-10T10:37:34.951Z,1003.88
2016-05-10T10:38:35.000Z,1003.88
2016-05-10T10:39:35.066Z,1003.87
2016-05-10T10:40:35.115Z,1003.89
2016-05-10T10:41:35.166Z,1003.91
2016-05-10T10:42:35.230Z,1003.9
2016-05-10T10:43:35.280Z,1003.87
2016-05-10T10:44:35.330Z,1003.86
2016-05-10T10:45:35.394Z,1003.85
2016-05-10T10:46:35.444Z,1003.82
2016-05-10T10:47:35.510Z,1003.84
2016-05-10T10:48:35.559Z,1003.77
2016-05-10T10:49:35.608Z,1003.8
2016-05-10T10:50:35.658Z,1003.87
2016-05-10T10:51:35.724Z,1003.85
2016-05-10T10:52:35.773Z,1003.83
2016-05-10T10:53:35.823Z,1003.86
2016-05-10T10:54:35.887Z,1003.85
2016-05-10T10:55:35.937Z,1003.79
2016-05-10T10:56:35.986Z,1003.82
2016-05-10T10:57:36.051Z,1003.83
2016-05-10T10:58:36.101Z,1003.85
2016-05-10T10:59:36.151Z,1003.82
2016-05-10T11:00:36.217Z,1003.79
2016-05-10T11:01:36.266Z,1003.79
2016-05-10T11:02:36.315Z,1003.85
2016-05-10T11:03:36.381Z,1003.81
2016-05-10T11:04:36.431Z,1003.84
2016-05-10T11:05:36.480Z,1003.75
2016-05-10T11:06:36.530Z,1003.83
2016-05-10T11:07:36.594Z,1003.81
2016-05-10T11:08:36.644Z,1003.82
2016-05-10T11:09:36.693Z,1003.77
2016-05-10T11:10:36.758Z,1003.8
2016-05-10T11:11:36.808Z,1003.74
2016-05-10T11:12:36.874Z,1003.77
2016-05-10T11:13:36.923Z,1003.75
2016-05-10T11:14:36.972Z,1003.73
2016-05-10T11:15:37.038Z,1003.7
2016-05-10T11:16:37.087Z,1003.71
2016-05-10T11:17:37.137Z,1003.75
2016-05-10T11:18:37.202Z,1003.69
2016-05-10T11:19:37.252Z,1003.74
2016-05-10T11:20:37.301Z,1003.72
2016-05-10T11:21:37.366Z,1003.72
2016-05-10T11:22:37.416Z,1003.74
2016-05-10T11:23:37.466Z,1003.66
2016-05-10T11:24:37.531Z,1003.69
2016-05-10T11:25:37.581Z,1003.64
2016-05-10T11:26:37.630Z,1003.69
2016-05-10T11:27:37.695Z,1003.63
2016-05-10T11:28:37.745Z,1003.67
2016-05-10T11:29:38.013Z,1003.61
2016-05-10T11:30:37.859Z,1003.65
2016-05-10T11:31:37.909Z,1003.61
2016-05-10T11:32:37.958Z,1003.62
2016-05-10T11:33:38.023Z,1003.65
2016-05-10T11:34:38.072Z,1003.61
2016-05-10T11:35:38.122Z,1003.56
2016-05-10T11:36:38.188Z,1003.56
2016-05-10T11:37:38.238Z,1003.56
2016-05-10T11:38:38.286Z,1003.57
2016-05-10T11:39:38.352Z,1003.58
2016-05-10T11:40:38.402Z,1003.6
2016-05-10T11:41:38.452Z,1003.56
2016-05-10T11:42:38.517Z,1003.62
2016-05-10T11:43:38.566Z,1003.58
2016-05-10T11:44:38.615Z,1003.59
2016-05-10T11:45:38.681Z,1003.6
2016-05-10T11:46:38.747Z,1003.61
2016-05-10T11:47:38.780Z,1003.55
2016-05-10T11:48:38.846Z,1003.59
2016-05-10T11:49:38.895Z,1003.49
2016-05-10T11:50:38.960Z,1003.48
2016-05-10T11:51:39.010Z,1003.48
2016-05-10T11:52:39.059Z,1003.46
2016-05-10T11:53:39.124Z,1003.44
2016-05-10T11:54:39.174Z,1003.42
2016-05-10T11:55:39.223Z,1003.39
2016-05-10T11:56:39.273Z,1003.46
2016-05-10T11:57:39.338Z,1003.4
2016-05-10T11:58:39.387Z,1003.37
2016-05-10T11:59:39.437Z,1003.39
2016-05-10T12:00:39.503Z,1003.39
2016-05-10T12:01:39.552Z,1003.38
2016-05-10T12:02:39.617Z,1003.37
2016-05-10T12:03:39.666Z,1003.38
2016-05-10T12:04:39.716Z,1003.29
2016-05-10T12:05:39.766Z,1003.3
2016-05-10T12:06:39.831Z,1003.34
2016-05-10T12:07:39.881Z,1003.33
2016-05-10T12:08:39.946Z,1003.29
2016-05-10T12:09:39.995Z,1003.32